sensor_id;sensor_type;location;lat;lon;timestamp;temperature;humidity
15676;DHT22;7938;47.666;9.434;2023-06-10T04:02:49;15.00;96.10
15676;DHT22;7938;47.666;9.434;2023-06-10T04:05:19;15.00;96.40
15676;DHT22;7938;47.666;9.434;2023-06-10T04:07:47;15.00;96.60
15676;DHT22;7938;47.666;9.434;2023-06-10T04:10:15;15.00;96.50
15676;DHT22;7938;47.666;9.434;2023-06-10T04:15:09;15.00;96.50
15676;DHT22;7938;47.666;9.434;2023-06-10T04:17:37;15.00;96.80
15676;DHT22;7938;47.666;9.434;2023-06-10T04:20:07;15.10;96.70
15676;DHT22;7938;47.666;9.434;2023-06-10T04:22:35;15.10;96.50
15676;DHT22;7938;47.666;9.434;2023-06-10T04:25:02;15.10;96.70
15676;DHT22;7938;47.666;9.434;2023-06-10T04:27:29;15.20;96.80
15676;DHT22;7938;47.666;9.434;2023-06-10T04:29:56;15.20;97.00
15676;DHT22;7938;47.666;9.434;2023-06-10T04:32:23;15.20;96.60
15676;DHT22;7938;47.666;9.434;2023-06-10T04:34:51;15.20;96.50
15676;DHT22;7938;47.666;9.434;2023-06-10T04:37:19;15.30;96.70
15676;DHT22;7938;47.666;9.434;2023-06-10T04:39:46;15.30;96.80
15676;DHT22;7938;47.666;9.434;2023-06-10T04:42:13;15.30;96.70
15676;DHT22;7938;47.666;9.434;2023-06-10T04:44:40;15.30;97.00
15676;DHT22;7938;47.666;9.434;2023-06-10T04:47:07;15.40;96.90
15676;DHT22;7938;47.666;9.434;2023-06-10T04:49:34;15.40;97.00
15676;DHT22;7938;47.666;9.434;2023-06-10T04:52:02;15.50;96.70
15676;DHT22;7938;47.666;9.434;2023-06-10T04:54:31;15.50;96.70
15676;DHT22;7938;47.666;9.434;2023-06-10T04:56:58;15.60;96.80
15676;DHT22;7938;47.666;9.434;2023-06-10T04:59:25;15.70;96.90
15676;DHT22;7938;47.666;9.434;2023-06-10T05:01:52;15.70;96.70
15676;DHT22;7938;47.666;9.434;2023-06-10T05:04:20;15.80;96.90
15676;DHT22;7938;47.666;9.434;2023-06-10T05:06:47;15.80;97.00
15676;DHT22;7938;47.666;9.434;2023-06-10T05:09:14;15.90;96.60
15676;DHT22;7938;47.666;9.434;2023-06-10T05:11:42;16.00;96.40
15676;DHT22;7938;47.666;9.434;2023-06-10T05:14:10;16.00;96.60
15676;DHT22;7938;47.666;9.434;2023-06-10T05:16:37;16.10;96.60
15676;DHT22;7938;47.666;9.434;2023-06-10T05:19:04;16.20;96.40
15676;DHT22;7938;47.666;9.434;2023-06-10T05:21:31;16.40;96.40
15676;DHT22;7938;47.666;9.434;2023-06-10T05:23:57;16.40;96.40
15676;DHT22;7938;47.666;9.434;2023-06-10T05:26:24;16.50;96.40
15676;DHT22;7938;47.666;9.434;2023-06-10T05:28:53;16.50;96.30
15676;DHT22;7938;47.666;9.434;2023-06-10T05:31:20;16.70;96.10
15676;DHT22;7938;47.666;9.434;2023-06-10T05:33:46;16.70;96.40
15676;DHT22;7938;47.666;9.434;2023-06-10T05:36:13;16.90;96.20
15676;DHT22;7938;47.666;9.434;2023-06-10T05:38:41;16.90;95.80
15676;DHT22;7938;47.666;9.434;2023-06-10T05:41:07;17.20;95.90
15676;DHT22;7938;47.666;9.434;2023-06-10T05:43:34;17.20;95.80
15676;DHT22;7938;47.666;9.434;2023-06-10T05:46:03;17.30;95.80
15676;DHT22;7938;47.666;9.434;2023-06-10T05:48:30;17.40;95.40
15676;DHT22;7938;47.666;9.434;2023-06-10T05:50:57;17.40;94.90
15676;DHT22;7938;47.666;9.434;2023-06-10T05:53:25;17.40;95.40
15676;DHT22;7938;47.666;9.434;2023-06-10T05:55:52;17.50;95.20
15676;DHT22;7938;47.666;9.434;2023-06-10T05:58:23;17.60;95.00
15676;DHT22;7938;47.666;9.434;2023-06-10T06:00:50;17.80;94.80
15676;DHT22;7938;47.666;9.434;2023-06-10T06:03:18;17.80;95.10
15676;DHT22;7938;47.666;9.434;2023-06-10T06:05:45;17.80;95.50
15676;DHT22;7938;47.666;9.434;2023-06-10T06:08:12;17.90;95.00
15676;DHT22;7938;47.666;9.434;2023-06-10T06:10:42;18.00;94.50
15676;DHT22;7938;47.666;9.434;2023-06-10T06:13:09;18.00;94.70
15676;DHT22;7938;47.666;9.434;2023-06-10T06:15:36;18.10;95.00
15676;DHT22;7938;47.666;9.434;2023-06-10T06:18:03;18.20;94.60
15676;DHT22;7938;47.666;9.434;2023-06-10T06:20:31;18.30;94.30
15676;DHT22;7938;47.666;9.434;2023-06-10T06:22:58;18.30;94.50
15676;DHT22;7938;47.666;9.434;2023-06-10T06:25:25;18.40;94.60
15676;DHT22;7938;47.666;9.434;2023-06-10T06:27:52;18.40;94.30
15676;DHT22;7938;47.666;9.434;2023-06-10T06:30:19;18.50;94.40
15676;DHT22;7938;47.666;9.434;2023-06-10T06:32:46;18.60;94.30
15676;DHT22;7938;47.666;9.434;2023-06-10T06:35:13;18.60;94.10
15676;DHT22;7938;47.666;9.434;2023-06-10T06:37:41;18.70;93.80
15676;DHT22;7938;47.666;9.434;2023-06-10T06:40:09;18.70;93.80
15676;DHT22;7938;47.666;9.434;2023-06-10T06:42:36;18.80;93.80
15676;DHT22;7938;47.666;9.434;2023-06-10T06:45:04;18.70;93.80
15676;DHT22;7938;47.666;9.434;2023-06-10T06:47:31;18.80;94.00
15676;DHT22;7938;47.666;9.434;2023-06-10T06:49:57;18.90;93.90
15676;DHT22;7938;47.666;9.434;2023-06-10T06:52:24;18.90;93.30
15676;DHT22;7938;47.666;9.434;2023-06-10T06:54:52;19.00;93.60
15676;DHT22;7938;47.666;9.434;2023-06-10T06:57:19;19.10;93.40
15676;DHT22;7938;47.666;9.434;2023-06-10T06:59:46;19.20;93.80
15676;DHT22;7938;47.666;9.434;2023-06-10T07:02:13;19.10;92.70
15676;DHT22;7938;47.666;9.434;2023-06-10T07:04:40;19.20;92.90
15676;DHT22;7938;47.666;9.434;2023-06-10T07:07:07;19.10;93.20
15676;DHT22;7938;47.666;9.434;2023-06-10T07:09:34;19.00;93.10
15676;DHT22;7938;47.666;9.434;2023-06-10T07:12:03;18.90;93.00
15676;DHT22;7938;47.666;9.434;2023-06-10T07:14:31;19.00;93.60
15676;DHT22;7938;47.666;9.434;2023-06-10T07:16:58;18.90;93.80
15676;DHT22;7938;47.666;9.434;2023-06-10T07:19:24;19.00;93.70
15676;DHT22;7938;47.666;9.434;2023-06-10T07:21:51;18.90;93.10
15676;DHT22;7938;47.666;9.434;2023-06-10T07:24:18;19.10;93.10
15676;DHT22;7938;47.666;9.434;2023-06-10T07:26:46;19.20;92.50
15676;DHT22;7938;47.666;9.434;2023-06-10T07:29:14;19.40;92.40
15676;DHT22;7938;47.666;9.434;2023-06-10T07:31:42;19.60;92.80
15676;DHT22;7938;47.666;9.434;2023-06-10T07:34:09;19.70;93.00
15676;DHT22;7938;47.666;9.434;2023-06-10T07:36:35;19.80;92.80
15676;DHT22;7938;47.666;9.434;2023-06-10T07:39:04;19.90;92.00
15676;DHT22;7938;47.666;9.434;2023-06-10T07:41:31;20.00;91.70
15676;DHT22;7938;47.666;9.434;2023-06-10T07:43:58;20.00;92.80
15676;DHT22;7938;47.666;9.434;2023-06-10T07:46:26;20.20;92.90
15676;DHT22;7938;47.666;9.434;2023-06-10T07:48:54;20.30;92.20
15676;DHT22;7938;47.666;9.434;2023-06-10T07:51:21;20.40;92.60
15676;DHT22;7938;47.666;9.434;2023-06-10T07:53:48;20.50;92.60
15676;DHT22;7938;47.666;9.434;2023-06-10T07:56:15;20.50;91.50
15676;DHT22;7938;47.666;9.434;2023-06-10T07:58:42;20.70;92.00
15676;DHT22;7938;47.666;9.434;2023-06-10T08:01:09;20.70;91.80
15676;DHT22;7938;47.666;9.434;2023-06-10T08:03:37;20.70;91.20
15676;DHT22;7938;47.666;9.434;2023-06-10T08:06:04;20.90;90.70
15676;DHT22;7938;47.666;9.434;2023-06-10T08:08:32;21.00;91.00
15676;DHT22;7938;47.666;9.434;2023-06-10T08:11:00;20.80;92.00
15676;DHT22;7938;47.666;9.434;2023-06-10T08:13:27;20.70;92.30
15676;DHT22;7938;47.666;9.434;2023-06-10T08:15:54;20.50;93.00
15676;DHT22;7938;47.666;9.434;2023-06-10T08:18:21;20.20;93.30
15676;DHT22;7938;47.666;9.434;2023-06-10T08:20:49;20.00;93.20
15676;DHT22;7938;47.666;9.434;2023-06-10T08:23:16;20.00;93.30
15676;DHT22;7938;47.666;9.434;2023-06-10T08:25:46;20.10;93.30
15676;DHT22;7938;47.666;9.434;2023-06-10T08:28:13;20.20;93.00
15676;DHT22;7938;47.666;9.434;2023-06-10T08:30:40;20.00;93.30
15676;DHT22;7938;47.666;9.434;2023-06-10T08:33:07;20.00;93.50
15676;DHT22;7938;47.666;9.434;2023-06-10T08:35:34;19.90;93.40
15676;DHT22;7938;47.666;9.434;2023-06-10T08:38:02;20.10;93.30
15676;DHT22;7938;47.666;9.434;2023-06-10T08:40:29;20.40;92.30
15676;DHT22;7938;47.666;9.434;2023-06-10T08:43:00;20.40;92.40
15676;DHT22;7938;47.666;9.434;2023-06-10T08:45:31;20.40;92.90
15676;DHT22;7938;47.666;9.434;2023-06-10T08:47:59;20.60;92.40
15676;DHT22;7938;47.666;9.434;2023-06-10T08:50:28;20.60;92.00
15676;DHT22;7938;47.666;9.434;2023-06-10T08:52:58;20.60;92.20
15676;DHT22;7938;47.666;9.434;2023-06-10T08:55:31;20.60;93.10
15676;DHT22;7938;47.666;9.434;2023-06-10T08:57:59;20.50;92.70
15676;DHT22;7938;47.666;9.434;2023-06-10T09:00:28;20.70;92.20
15676;DHT22;7938;47.666;9.434;2023-06-10T09:02:56;20.70;92.40
15676;DHT22;7938;47.666;9.434;2023-06-10T09:05:23;20.80;93.00
15676;DHT22;7938;47.666;9.434;2023-06-10T09:07:51;20.80;93.10
15676;DHT22;7938;47.666;9.434;2023-06-10T09:10:19;20.80;92.80
15676;DHT22;7938;47.666;9.434;2023-06-10T09:12:48;21.00;92.90
15676;DHT22;7938;47.666;9.434;2023-06-10T09:15:15;21.10;92.40
15676;DHT22;7938;47.666;9.434;2023-06-10T09:17:43;21.10;91.80
15676;DHT22;7938;47.666;9.434;2023-06-10T09:20:10;21.20;91.30
15676;DHT22;7938;47.666;9.434;2023-06-10T09:22:38;21.30;91.50
15676;DHT22;7938;47.666;9.434;2023-06-10T09:25:06;21.40;91.40
15676;DHT22;7938;47.666;9.434;2023-06-10T09:27:44;21.50;91.50
15676;DHT22;7938;47.666;9.434;2023-06-10T09:30:24;21.70;90.60
15676;DHT22;7938;47.666;9.434;2023-06-10T09:32:52;21.60;91.00
15676;DHT22;7938;47.666;9.434;2023-06-10T09:35:19;21.70;91.30
15676;DHT22;7938;47.666;9.434;2023-06-10T09:37:46;21.80;91.10
15676;DHT22;7938;47.666;9.434;2023-06-10T09:40:16;21.70;91.10
15676;DHT22;7938;47.666;9.434;2023-06-10T09:42:43;21.70;90.60
15676;DHT22;7938;47.666;9.434;2023-06-10T09:45:15;21.80;91.80
15676;DHT22;7938;47.666;9.434;2023-06-10T09:47:42;21.80;91.60
15676;DHT22;7938;47.666;9.434;2023-06-10T09:50:12;21.60;91.70
15676;DHT22;7938;47.666;9.434;2023-06-10T09:52:39;21.60;92.00
15676;DHT22;7938;47.666;9.434;2023-06-10T09:55:08;21.70;91.90
15676;DHT22;7938;47.666;9.434;2023-06-10T09:57:36;21.70;92.10
15676;DHT22;7938;47.666;9.434;2023-06-10T10:00:05;21.70;92.20
15676;DHT22;7938;47.666;9.434;2023-06-10T10:02:44;21.80;91.30
15676;DHT22;7938;47.666;9.434;2023-06-10T10:05:12;21.80;91.80
15676;DHT22;7938;47.666;9.434;2023-06-10T10:07:40;21.90;91.30
15676;DHT22;7938;47.666;9.434;2023-06-10T10:10:07;22.10;90.90
15676;DHT22;7938;47.666;9.434;2023-06-10T10:12:35;22.00;91.30
15676;DHT22;7938;47.666;9.434;2023-06-10T10:15:04;22.10;91.60
15676;DHT22;7938;47.666;9.434;2023-06-10T10:17:35;22.00;91.40
15676;DHT22;7938;47.666;9.434;2023-06-10T10:20:05;22.30;91.60
15676;DHT22;7938;47.666;9.434;2023-06-10T10:22:37;22.50;91.90
15676;DHT22;7938;47.666;9.434;2023-06-10T10:25:10;22.50;91.00
15676;DHT22;7938;47.666;9.434;2023-06-10T10:27:44;22.60;90.80
15676;DHT22;7938;47.666;9.434;2023-06-10T10:30:11;22.60;91.00
15676;DHT22;7938;47.666;9.434;2023-06-10T10:32:57;22.60;91.70
15676;DHT22;7938;47.666;9.434;2023-06-10T10:35:27;22.90;88.90
15676;DHT22;7938;47.666;9.434;2023-06-10T10:37:55;22.80;90.40
15676;DHT22;7938;47.666;9.434;2023-06-10T10:40:22;22.90;90.20
15676;DHT22;7938;47.666;9.434;2023-06-10T10:42:51;22.80;90.30
15676;DHT22;7938;47.666;9.434;2023-06-10T10:45:18;22.80;92.30
15676;DHT22;7938;47.666;9.434;2023-06-10T10:47:52;22.70;91.60
15676;DHT22;7938;47.666;9.434;2023-06-10T10:50:20;22.90;90.90
15676;DHT22;7938;47.666;9.434;2023-06-10T10:52:53;23.00;90.50
15676;DHT22;7938;47.666;9.434;2023-06-10T10:55:20;23.00;89.70
15676;DHT22;7938;47.666;9.434;2023-06-10T10:57:54;23.00;90.00
15676;DHT22;7938;47.666;9.434;2023-06-10T11:00:27;23.30;90.10
15676;DHT22;7938;47.666;9.434;2023-06-10T11:03:00;23.30;90.30
15676;DHT22;7938;47.666;9.434;2023-06-10T11:05:38;23.40;89.10
15676;DHT22;7938;47.666;9.434;2023-06-10T11:08:05;23.70;86.90
15676;DHT22;7938;47.666;9.434;2023-06-10T11:10:34;23.50;86.40
15676;DHT22;7938;47.666;9.434;2023-06-10T11:13:07;23.50;87.00
15676;DHT22;7938;47.666;9.434;2023-06-10T11:15:38;23.60;86.10
15676;DHT22;7938;47.666;9.434;2023-06-10T11:18:15;23.90;86.60
15676;DHT22;7938;47.666;9.434;2023-06-10T11:20:57;23.70;88.20
15676;DHT22;7938;47.666;9.434;2023-06-10T11:23:40;23.70;87.20
15676;DHT22;7938;47.666;9.434;2023-06-10T11:26:21;23.90;86.00
15676;DHT22;7938;47.666;9.434;2023-06-10T11:29:03;24.00;84.40
15676;DHT22;7938;47.666;9.434;2023-06-10T11:31:31;24.10;83.60
15676;DHT22;7938;47.666;9.434;2023-06-10T11:34:01;24.10;84.70
15676;DHT22;7938;47.666;9.434;2023-06-10T11:36:29;24.10;85.80
15676;DHT22;7938;47.666;9.434;2023-06-10T11:38:57;24.20;85.10
15676;DHT22;7938;47.666;9.434;2023-06-10T11:41:25;24.30;85.90
15676;DHT22;7938;47.666;9.434;2023-06-10T11:43:52;24.30;86.40
15676;DHT22;7938;47.666;9.434;2023-06-10T11:46:19;24.40;85.80
15676;DHT22;7938;47.666;9.434;2023-06-10T11:48:50;24.70;88.30
15676;DHT22;7938;47.666;9.434;2023-06-10T11:51:19;24.70;84.40
15676;DHT22;7938;47.666;9.434;2023-06-10T11:53:47;24.90;84.00
15676;DHT22;7938;47.666;9.434;2023-06-10T11:56:19;24.80;86.60
15676;DHT22;7938;47.666;9.434;2023-06-10T11:58:52;24.60;87.40
15676;DHT22;7938;47.666;9.434;2023-06-10T12:01:21;24.60;83.40
15676;DHT22;7938;47.666;9.434;2023-06-10T12:03:56;24.50;85.70
15676;DHT22;7938;47.666;9.434;2023-06-10T12:06:24;24.70;87.20
15676;DHT22;7938;47.666;9.434;2023-06-10T12:08:51;24.80;86.30
15676;DHT22;7938;47.666;9.434;2023-06-10T12:11:18;25.10;86.20
15676;DHT22;7938;47.666;9.434;2023-06-10T12:13:46;25.20;84.70
15676;DHT22;7938;47.666;9.434;2023-06-10T12:16:15;25.20;85.70
15676;DHT22;7938;47.666;9.434;2023-06-10T12:18:43;25.40;85.70
15676;DHT22;7938;47.666;9.434;2023-06-10T12:21:18;25.30;84.80
15676;DHT22;7938;47.666;9.434;2023-06-10T12:24:07;25.30;82.80
15676;DHT22;7938;47.666;9.434;2023-06-10T12:26:39;25.60;83.90
15676;DHT22;7938;47.666;9.434;2023-06-10T12:29:20;25.50;84.10
15676;DHT22;7938;47.666;9.434;2023-06-10T12:31:59;25.40;83.10
15676;DHT22;7938;47.666;9.434;2023-06-10T12:34:31;25.70;85.20
15676;DHT22;7938;47.666;9.434;2023-06-10T12:37:01;25.50;86.30
15676;DHT22;7938;47.666;9.434;2023-06-10T12:39:31;25.60;83.70
15676;DHT22;7938;47.666;9.434;2023-06-10T12:41:58;25.90;83.10
15676;DHT22;7938;47.666;9.434;2023-06-10T12:44:32;26.10;84.40
15676;DHT22;7938;47.666;9.434;2023-06-10T12:47:00;26.20;81.80
15676;DHT22;7938;47.666;9.434;2023-06-10T12:49:27;25.80;80.80
15676;DHT22;7938;47.666;9.434;2023-06-10T12:51:54;26.00;80.10
15676;DHT22;7938;47.666;9.434;2023-06-10T12:54:21;26.30;80.60
15676;DHT22;7938;47.666;9.434;2023-06-10T12:56:50;26.80;79.40
15676;DHT22;7938;47.666;9.434;2023-06-10T12:59:16;27.20;79.80
15676;DHT22;7938;47.666;9.434;2023-06-10T13:01:43;27.50;74.70
15676;DHT22;7938;47.666;9.434;2023-06-10T13:04:10;27.60;72.50
15676;DHT22;7938;47.666;9.434;2023-06-10T13:06:38;27.90;73.70
15676;DHT22;7938;47.666;9.434;2023-06-10T13:09:08;27.60;78.30
15676;DHT22;7938;47.666;9.434;2023-06-10T13:11:37;27.80;79.50
15676;DHT22;7938;47.666;9.434;2023-06-10T13:14:07;27.00;84.10
15676;DHT22;7938;47.666;9.434;2023-06-10T13:16:34;26.80;83.30
15676;DHT22;7938;47.666;9.434;2023-06-10T13:19:04;27.10;83.00
15676;DHT22;7938;47.666;9.434;2023-06-10T13:21:32;27.30;82.10
15676;DHT22;7938;47.666;9.434;2023-06-10T13:23:59;27.50;79.80
15676;DHT22;7938;47.666;9.434;2023-06-10T13:26:26;27.60;76.30
15676;DHT22;7938;47.666;9.434;2023-06-10T13:28:53;27.90;76.10
15676;DHT22;7938;47.666;9.434;2023-06-10T13:31:21;28.00;75.10
15676;DHT22;7938;47.666;9.434;2023-06-10T13:33:48;28.40;71.60
15676;DHT22;7938;47.666;9.434;2023-06-10T13:36:15;28.20;71.00
15676;DHT22;7938;47.666;9.434;2023-06-10T13:38:42;28.00;71.30
15676;DHT22;7938;47.666;9.434;2023-06-10T13:41:09;27.50;70.50
15676;DHT22;7938;47.666;9.434;2023-06-10T13:43:36;27.20;70.80
15676;DHT22;7938;47.666;9.434;2023-06-10T13:46:03;26.90;70.30
15676;DHT22;7938;47.666;9.434;2023-06-10T13:48:31;27.60;72.00
15676;DHT22;7938;47.666;9.434;2023-06-10T13:50:59;29.20;67.00
15676;DHT22;7938;47.666;9.434;2023-06-10T13:53:26;30.90;65.50
15676;DHT22;7938;47.666;9.434;2023-06-10T13:55:53;32.50;65.90
15676;DHT22;7938;47.666;9.434;2023-06-10T13:58:20;33.50;59.90
15676;DHT22;7938;47.666;9.434;2023-06-10T14:00:46;34.50;58.50
15676;DHT22;7938;47.666;9.434;2023-06-10T14:03:13;33.90;58.90
15676;DHT22;7938;47.666;9.434;2023-06-10T14:05:42;35.40;56.80
15676;DHT22;7938;47.666;9.434;2023-06-10T14:08:09;35.00;53.00
15676;DHT22;7938;47.666;9.434;2023-06-10T14:10:35;33.20;56.00
15676;DHT22;7938;47.666;9.434;2023-06-10T14:13:02;33.00;56.70
15676;DHT22;7938;47.666;9.434;2023-06-10T14:15:29;33.20;57.00
15676;DHT22;7938;47.666;9.434;2023-06-10T14:17:57;33.90;57.30
15676;DHT22;7938;47.666;9.434;2023-06-10T14:20:24;34.80;53.20
15676;DHT22;7938;47.666;9.434;2023-06-10T14:22:53;34.70;53.80
15676;DHT22;7938;47.666;9.434;2023-06-10T14:25:20;33.00;56.60
15676;DHT22;7938;47.666;9.434;2023-06-10T14:27:47;33.30;57.70
15676;DHT22;7938;47.666;9.434;2023-06-10T14:30:14;32.90;58.10
15676;DHT22;7938;47.666;9.434;2023-06-10T14:32:41;33.80;54.40
15676;DHT22;7938;47.666;9.434;2023-06-10T14:35:08;34.60;55.80
15676;DHT22;7938;47.666;9.434;2023-06-10T14:37:35;35.20;54.40
15676;DHT22;7938;47.666;9.434;2023-06-10T14:40:05;34.50;54.30
15676;DHT22;7938;47.666;9.434;2023-06-10T14:42:32;35.10;52.50
15676;DHT22;7938;47.666;9.434;2023-06-10T14:44:59;35.50;52.50
15676;DHT22;7938;47.666;9.434;2023-06-10T14:47:26;36.20;51.50
15676;DHT22;7938;47.666;9.434;2023-06-10T14:49:53;37.00;50.60
15676;DHT22;7938;47.666;9.434;2023-06-10T14:52:20;37.40;49.30
15676;DHT22;7938;47.666;9.434;2023-06-10T14:54:47;38.20;49.50
15676;DHT22;7938;47.666;9.434;2023-06-10T14:57:15;38.80;48.00
15676;DHT22;7938;47.666;9.434;2023-06-10T14:59:42;39.20;47.50
15676;DHT22;7938;47.666;9.434;2023-06-10T15:02:09;38.60;48.10
15676;DHT22;7938;47.666;9.434;2023-06-10T15:04:36;38.50;47.80
15676;DHT22;7938;47.666;9.434;2023-06-10T15:07:03;39.20;47.30
15676;DHT22;7938;47.666;9.434;2023-06-10T15:09:30;37.50;48.90
15676;DHT22;7938;47.666;9.434;2023-06-10T15:11:57;37.30;48.30
15676;DHT22;7938;47.666;9.434;2023-06-10T15:14:26;37.00;49.00
15676;DHT22;7938;47.666;9.434;2023-06-10T15:16:53;36.50;49.20
15676;DHT22;7938;47.666;9.434;2023-06-10T15:19:21;38.10;48.80
15676;DHT22;7938;47.666;9.434;2023-06-10T15:21:48;37.90;47.70
15676;DHT22;7938;47.666;9.434;2023-06-10T15:24:15;37.80;46.70
15676;DHT22;7938;47.666;9.434;2023-06-10T15:26:41;37.20;47.30
15676;DHT22;7938;47.666;9.434;2023-06-10T15:29:08;37.00;48.00
15676;DHT22;7938;47.666;9.434;2023-06-10T15:31:39;37.40;48.50
15676;DHT22;7938;47.666;9.434;2023-06-10T15:34:06;38.50;48.70
15676;DHT22;7938;47.666;9.434;2023-06-10T15:36:34;37.80;47.90
15676;DHT22;7938;47.666;9.434;2023-06-10T15:39:05;37.00;47.90
15676;DHT22;7938;47.666;9.434;2023-06-10T15:41:33;38.00;47.90
15676;DHT22;7938;47.666;9.434;2023-06-10T15:44:00;38.30;46.70
15676;DHT22;7938;47.666;9.434;2023-06-10T15:46:28;37.70;47.00
15676;DHT22;7938;47.666;9.434;2023-06-10T15:48:57;37.70;46.10
15676;DHT22;7938;47.666;9.434;2023-06-10T15:51:24;37.00;47.70
15676;DHT22;7938;47.666;9.434;2023-06-10T15:53:51;36.70;49.50
15676;DHT22;7938;47.666;9.434;2023-06-10T15:56:18;37.10;48.40
15676;DHT22;7938;47.666;9.434;2023-06-10T15:58:45;38.30;48.00
15676;DHT22;7938;47.666;9.434;2023-06-10T16:01:15;36.40;47.10
15676;DHT22;7938;47.666;9.434;2023-06-10T16:03:42;36.20;48.30
15676;DHT22;7938;47.666;9.434;2023-06-10T16:06:10;36.40;49.10
15676;DHT22;7938;47.666;9.434;2023-06-10T16:08:37;36.60;47.80
15676;DHT22;7938;47.666;9.434;2023-06-10T16:11:04;36.40;48.00
15676;DHT22;7938;47.666;9.434;2023-06-10T16:13:31;35.90;48.20
15676;DHT22;7938;47.666;9.434;2023-06-10T16:15:58;36.40;49.40
15676;DHT22;7938;47.666;9.434;2023-06-10T16:18:24;36.90;47.60
15676;DHT22;7938;47.666;9.434;2023-06-10T16:20:52;36.80;48.50
15676;DHT22;7938;47.666;9.434;2023-06-10T16:23:20;37.30;48.10
15676;DHT22;7938;47.666;9.434;2023-06-10T16:25:47;37.40;47.60
15676;DHT22;7938;47.666;9.434;2023-06-10T16:28:14;37.40;46.80
15676;DHT22;7938;47.666;9.434;2023-06-10T16:30:41;37.80;46.10
15676;DHT22;7938;47.666;9.434;2023-06-10T16:33:08;38.00;46.20
15676;DHT22;7938;47.666;9.434;2023-06-10T16:35:35;38.70;45.90
15676;DHT22;7938;47.666;9.434;2023-06-10T16:38:01;39.40;45.30
15676;DHT22;7938;47.666;9.434;2023-06-10T16:40:30;39.80;45.00
15676;DHT22;7938;47.666;9.434;2023-06-10T16:42:57;39.80;45.30
15676;DHT22;7938;47.666;9.434;2023-06-10T16:45:24;39.60;44.10
15676;DHT22;7938;47.666;9.434;2023-06-10T16:47:51;39.30;45.50
15676;DHT22;7938;47.666;9.434;2023-06-10T16:50:18;39.20;45.30
15676;DHT22;7938;47.666;9.434;2023-06-10T16:52:44;38.10;45.90
15676;DHT22;7938;47.666;9.434;2023-06-10T16:55:11;36.60;47.20
15676;DHT22;7938;47.666;9.434;2023-06-10T16:57:40;35.50;49.30
15676;DHT22;7938;47.666;9.434;2023-06-10T17:00:07;35.50;48.60
15676;DHT22;7938;47.666;9.434;2023-06-10T17:02:34;35.50;49.10
15676;DHT22;7938;47.666;9.434;2023-06-10T17:05:01;36.50;48.60
15676;DHT22;7938;47.666;9.434;2023-06-10T17:07:29;36.70;47.90
15676;DHT22;7938;47.666;9.434;2023-06-10T17:09:57;35.50;49.40
15676;DHT22;7938;47.666;9.434;2023-06-10T17:12:23;34.20;50.70
15676;DHT22;7938;47.666;9.434;2023-06-10T17:14:52;33.60;51.90
15676;DHT22;7938;47.666;9.434;2023-06-10T17:17:19;32.70;52.50
15676;DHT22;7938;47.666;9.434;2023-06-10T17:19:45;31.70;54.50
15676;DHT22;7938;47.666;9.434;2023-06-10T17:22:12;31.00;55.30
15676;DHT22;7938;47.666;9.434;2023-06-10T17:24:39;30.70;57.50
15676;DHT22;7938;47.666;9.434;2023-06-10T17:27:07;31.90;56.60
15676;DHT22;7938;47.666;9.434;2023-06-10T17:29:34;33.10;54.50
15676;DHT22;7938;47.666;9.434;2023-06-10T17:32:03;34.20;52.00
15676;DHT22;7938;47.666;9.434;2023-06-10T17:34:30;34.60;51.70
15676;DHT22;7938;47.666;9.434;2023-06-10T17:36:57;34.90;52.00
15676;DHT22;7938;47.666;9.434;2023-06-10T17:39:24;35.50;51.10
15676;DHT22;7938;47.666;9.434;2023-06-10T17:41:51;35.20;50.70
15676;DHT22;7938;47.666;9.434;2023-06-10T17:44:20;34.20;51.80
15676;DHT22;7938;47.666;9.434;2023-06-10T17:46:49;33.50;53.20
15676;DHT22;7938;47.666;9.434;2023-06-10T17:49:19;34.00;52.60
15676;DHT22;7938;47.666;9.434;2023-06-10T17:51:48;33.60;53.00
15676;DHT22;7938;47.666;9.434;2023-06-10T17:54:15;33.50;53.10
15676;DHT22;7938;47.666;9.434;2023-06-10T17:56:43;33.20;53.90
15676;DHT22;7938;47.666;9.434;2023-06-10T17:59:10;32.80;54.30
15676;DHT22;7938;47.666;9.434;2023-06-10T18:01:37;30.70;56.60
15676;DHT22;7938;47.666;9.434;2023-06-10T18:04:05;30.20;58.40
15676;DHT22;7938;47.666;9.434;2023-06-10T18:06:33;29.10;59.70
15676;DHT22;7938;47.666;9.434;2023-06-10T18:09:02;28.50;61.00
15676;DHT22;7938;47.666;9.434;2023-06-10T18:11:29;27.40;62.90
15676;DHT22;7938;47.666;9.434;2023-06-10T18:13:56;27.20;64.00
15676;DHT22;7938;47.666;9.434;2023-06-10T18:16:23;26.80;65.00
15676;DHT22;7938;47.666;9.434;2023-06-10T18:18:52;26.50;65.60
15676;DHT22;7938;47.666;9.434;2023-06-10T18:21:19;26.30;66.20
15676;DHT22;7938;47.666;9.434;2023-06-10T18:23:47;26.20;66.80
15676;DHT22;7938;47.666;9.434;2023-06-10T18:26:15;26.00;67.70
15676;DHT22;7938;47.666;9.434;2023-06-10T18:28:42;25.80;68.00
15676;DHT22;7938;47.666;9.434;2023-06-10T18:31:08;25.40;68.60
15676;DHT22;7938;47.666;9.434;2023-06-10T18:33:35;25.40;69.50
15676;DHT22;7938;47.666;9.434;2023-06-10T18:36:03;25.30;70.10
15676;DHT22;7938;47.666;9.434;2023-06-10T18:38:30;25.10;70.40
15676;DHT22;7938;47.666;9.434;2023-06-10T18:40:58;24.70;71.00
15676;DHT22;7938;47.666;9.434;2023-06-10T18:43:25;24.60;71.50
15676;DHT22;7938;47.666;9.434;2023-06-10T18:45:52;24.50;72.40
15676;DHT22;7938;47.666;9.434;2023-06-10T18:48:19;24.40;73.10
15676;DHT22;7938;47.666;9.434;2023-06-10T18:50:46;24.30;72.30
15676;DHT22;7938;47.666;9.434;2023-06-10T18:53:13;24.20;72.90
15676;DHT22;7938;47.666;9.434;2023-06-10T18:55:40;24.10;73.40
15676;DHT22;7938;47.666;9.434;2023-06-10T18:58:08;23.90;73.60
15676;DHT22;7938;47.666;9.434;2023-06-10T19:00:35;23.70;74.50
15676;DHT22;7938;47.666;9.434;2023-06-10T19:03:02;23.70;75.20
15676;DHT22;7938;47.666;9.434;2023-06-10T19:05:29;23.50;75.30
15676;DHT22;7938;47.666;9.434;2023-06-10T19:07:56;23.50;75.70
15676;DHT22;7938;47.666;9.434;2023-06-10T19:10:23;23.30;77.10
15676;DHT22;7938;47.666;9.434;2023-06-10T19:12:50;23.20;75.80
15676;DHT22;7938;47.666;9.434;2023-06-10T19:15:18;23.10;76.40
15676;DHT22;7938;47.666;9.434;2023-06-10T19:17:45;23.10;76.70
15676;DHT22;7938;47.666;9.434;2023-06-10T19:20:14;23.00;77.00
15676;DHT22;7938;47.666;9.434;2023-06-10T19:22:44;22.80;77.00
15676;DHT22;7938;47.666;9.434;2023-06-10T19:25:11;22.70;77.80
15676;DHT22;7938;47.666;9.434;2023-06-10T19:27:38;22.60;79.00
15676;DHT22;7938;47.666;9.434;2023-06-10T19:30:06;22.50;78.60
15676;DHT22;7938;47.666;9.434;2023-06-10T19:32:34;22.40;78.20
15676;DHT22;7938;47.666;9.434;2023-06-10T19:35:01;22.30;79.40
15676;DHT22;7938;47.666;9.434;2023-06-10T19:37:29;22.20;80.70
15676;DHT22;7938;47.666;9.434;2023-06-10T19:39:56;22.80;81.60
15676;DHT22;7938;47.666;9.434;2023-06-10T19:42:23;22.00;80.70
15676;DHT22;7938;47.666;9.434;2023-06-10T19:44:50;21.90;82.30
15676;DHT22;7938;47.666;9.434;2023-06-10T19:47:17;21.70;81.40
15676;DHT22;7938;47.666;9.434;2023-06-10T19:49:45;21.70;82.40
15676;DHT22;7938;47.666;9.434;2023-06-10T19:52:12;21.60;82.10
15676;DHT22;7938;47.666;9.434;2023-06-10T19:54:39;21.60;82.10